Time;durP1;ratioP1;P1;durP2;ratioP2;P2;SDS_P1;SDS_P2;PMS_P1;PMS_P2;Temp;Humidity;BMP_temperature;BMP_pressure;BME280_temperature;BME280_humidity;BME280_pressure;Samples;Min_cycle;Max_cycle;Signal;HPM_P1;HPM_P2
2023/09/29 00:00:49;;;;;;;27.02;13.45;;;14.50;99.90;;;;;;4953045;28;20038;-84
2023/09/29 00:03:15;;;;;;;26.00;12.80;;;14.60;99.90;;;;;;4947683;28;20407;-85
2023/09/29 00:05:44;;;;;;;28.20;13.00;;;14.60;99.90;;;;;;4955337;28;20035;-84
2023/09/29 00:08:15;;;;;;;23.40;12.82;;;14.60;99.90;;;;;;4964076;28;20050;-84
2023/09/29 00:10:40;;;;;;;21.42;12.27;;;14.60;99.90;;;;;;4963238;28;20158;-84
2023/09/29 06:14:41;;;;;;;16.33;10.80;;;16.10;99.90;;;;;;5032875;23;20039;-80
2023/09/29 06:21:44;;;;;;;;;;;;;;;;;;;;;
2023/09/29 06:24:28;;;;;;;13.73;8.82;;;16.10;99.90;;;;;;4963151;28;20090;-83
2023/09/29 06:36:00;;;;;;;;;;;;;;;;;;;;;
2023/09/29 06:38:48;;;;;;;12.77;8.55;;;16.20;99.90;;;;;;4817474;29;20173;-80
2023/09/29 06:41:27;;;;;;;12.45;8.05;;;16.20;99.90;;;;;;4929101;28;20039;-81
2023/09/29 06:44:06;;;;;;;10.40;8.38;;;16.30;99.90;;;;;;4968818;28;20094;-81
2023/09/29 06:47:22;;;;;;;12.07;8.38;;;16.30;99.90;;;;;;4940863;29;20047;-81
2023/09/29 06:50:09;;;;;;;8.68;7.57;;;16.30;99.90;;;;;;4961734;28;20593;-81
2023/09/29 09:26:30;;;;;;;5.97;4.60;;;20.50;99.90;;;;;;4969470;28;20047;-85
2023/09/29 09:29:08;;;;;;;7.47;4.60;;;20.50;99.90;;;;;;4966959;28;20039;-86
2023/09/29 09:31:56;;;;;;;6.65;4.65;;;20.40;99.90;;;;;;4942541;28;20488;-85
2023/09/29 09:34:37;;;;;;;6.13;4.38;;;20.40;99.90;;;;;;4953734;28;20136;-85
2023/09/29 09:37:05;;;;;;;6.20;4.68;;;20.50;99.90;;;;;;4954647;29;20093;-85
2023/09/29 09:39:33;;;;;;;7.35;4.80;;;20.50;99.90;;;;;;4939158;29;20074;-85
2023/09/29 09:41:59;;;;;;;6.28;4.68;;;20.50;99.90;;;;;;4954878;29;20121;-84
2023/09/29 09:44:26;;;;;;;8.40;4.72;;;20.50;99.90;;;;;;4954451;29;20036;-84
2023/09/29 09:47:10;;;;;;;7.80;5.00;;;20.30;99.90;;;;;;4954503;29;20126;-84
2023/09/29 09:49:41;;;;;;;6.07;5.30;;;20.20;99.90;;;;;;4971082;28;20066;-85
2023/09/29 09:52:15;;;;;;;6.22;4.55;;;20.30;99.90;;;;;;4962592;28;20051;-83
2023/09/29 09:55:11;;;;;;;8.57;4.93;;;20.30;99.90;;;;;;4962446;28;20409;-84
2023/09/29 09:57:43;;;;;;;6.82;4.80;;;20.30;99.90;;;;;;4943621;28;20039;-84
2023/09/29 10:00:13;;;;;;;7.43;4.55;;;20.30;99.90;;;;;;4949479;28;20070;-85
2023/09/29 10:02:48;;;;;;;10.98;5.22;;;20.30;99.90;;;;;;4941626;28;20125;-84
2023/09/29 10:05:16;;;;;;;7.78;4.63;;;20.30;99.90;;;;;;4955480;28;20103;-84
2023/09/29 10:07:53;;;;;;;7.63;4.80;;;20.20;99.90;;;;;;4959813;28;20101;-85
2023/09/29 10:10:35;;;;;;;7.57;4.95;;;20.10;99.90;;;;;;4952049;28;20137;-85
2023/09/29 10:13:07;;;;;;;7.03;4.93;;;20.10;99.90;;;;;;4953796;28;20043;-84
2023/09/29 10:15:35;;;;;;;7.93;5.00;;;20.20;99.90;;;;;;4969761;28;20505;-84
2023/09/29 10:18:12;;;;;;;8.30;4.85;;;20.20;99.90;;;;;;4967319;28;20043;-84
2023/09/29 10:20:37;;;;;;;9.23;5.28;;;20.20;99.90;;;;;;4953923;29;20039;-84
2023/09/29 10:23:06;;;;;;;8.35;5.13;;;20.20;99.90;;;;;;4953462;29;20050;-85
2023/09/29 10:25:37;;;;;;;7.93;4.90;;;20.30;99.90;;;;;;4937596;29;20130;-84
2023/09/29 10:28:08;;;;;;;9.77;5.75;;;20.40;99.90;;;;;;4950764;28;20458;-84
2023/09/29 10:30:35;;;;;;;7.20;5.00;;;20.50;99.90;;;;;;4968160;28;20045;-84
2023/09/29 10:33:11;;;;;;;8.77;5.30;;;20.50;99.90;;;;;;4955286;28;20454;-85
2023/09/29 10:35:45;;;;;;;10.18;5.30;;;20.60;99.90;;;;;;4969622;28;20501;-85
2023/09/29 10:38:24;;;;;;;8.45;4.90;;;20.70;99.90;;;;;;4953869;29;20043;-84
2023/09/29 10:40:51;;;;;;;9.68;5.22;;;20.90;99.90;;;;;;4953527;29;20046;-84
2023/09/29 10:43:18;;;;;;;9.05;5.78;;;21.00;99.90;;;;;;4953402;29;20082;-85
2023/09/29 10:45:44;;;;;;;7.75;6.03;;;21.10;99.90;;;;;;4937274;29;20043;-85
2023/09/29 10:48:10;;;;;;;8.13;6.05;;;21.10;99.90;;;;;;4953771;28;20453;-85
2023/09/29 10:50:41;;;;;;;8.80;5.82;;;21.10;99.90;;;;;;4953648;29;20043;-85
2023/09/29 10:53:07;;;;;;;10.85;6.00;;;21.10;99.90;;;;;;4957860;28;20065;-85
2023/09/29 10:55:44;;;;;;;7.63;5.47;;;21.10;99.90;;;;;;4971369;28;20049;-84
2023/09/29 10:58:15;;;;;;;7.82;6.00;;;21.00;99.90;;;;;;4959830;28;20035;-86
2023/09/29 11:00:43;;;;;;;9.15;6.53;;;20.90;99.90;;;;;;4963922;28;20049;-85
2023/09/29 11:03:12;;;;;;;9.23;6.13;;;21.00;99.90;;;;;;4967944;28;20039;-84
2023/09/29 11:05:49;;;;;;;8.65;6.22;;;21.00;99.90;;;;;;4967348;28;20089;-85
2023/09/29 11:08:20;;;;;;;7.78;6.90;;;21.10;99.90;;;;;;4952929;28;20053;-85
2023/09/29 11:11:00;;;;;;;8.95;6.30;;;21.20;99.90;;;;;;4947343;28;20038;-84
2023/09/29 11:13:27;;;;;;;10.95;6.30;;;21.20;99.90;;;;;;4954162;28;20070;-84
2023/09/29 11:15:58;;;;;;;14.60;7.25;;;21.10;99.90;;;;;;4947492;28;20044;-85
2023/09/29 11:18:34;;;;;;;8.32;6.63;;;21.00;99.90;;;;;;4970294;28;20420;-85
2023/09/29 11:21:05;;;;;;;8.23;5.88;;;21.10;99.90;;;;;;4966556;28;20077;-85
2023/09/29 11:23:45;;;;;;;8.23;5.75;;;21.10;99.90;;;;;;4953056;28;20085;-85
2023/09/29 11:26:12;;;;;;;7.72;6.03;;;21.20;99.90;;;;;;4954758;28;20496;-85
2023/09/29 11:28:47;;;;;;;8.02;5.60;;;21.40;99.90;;;;;;4970725;28;20030;-84
2023/09/29 11:31:15;;;;;;;9.23;5.38;;;21.50;99.90;;;;;;4959310;28;20062;-84
2023/09/29 11:33:41;;;;;;;11.55;5.53;;;21.60;99.90;;;;;;4969524;28;20094;-85
2023/09/29 11:36:18;;;;;;;7.63;4.85;;;21.80;99.90;;;;;;4955595;28;20043;-85
2023/09/29 11:38:45;;;;;;;7.07;5.43;;;21.80;99.90;;;;;;4972015;28;20042;-85
2023/09/29 11:41:23;;;;;;;7.07;4.80;;;21.80;99.90;;;;;;4971206;28;20034;-84
2023/09/29 11:43:50;;;;;;;7.03;4.95;;;21.80;99.90;;;;;;4971906;28;20134;-85
2023/09/29 11:46:15;;;;;;;6.72;4.28;;;21.90;99.90;;;;;;4955814;28;20047;-84
2023/09/29 11:48:42;;;;;;;5.35;4.22;;;21.90;99.90;;;;;;4955709;28;20046;-85
2023/09/29 11:51:08;;;;;;;5.80;4.20;;;21.80;99.90;;;;;;4955268;28;20085;-84
2023/09/29 11:53:34;;;;;;;7.25;4.07;;;21.70;99.90;;;;;;4936568;29;20043;-85
2023/09/29 11:56:02;;;;;;;7.45;4.40;;;21.80;99.90;;;;;;4936380;28;20031;-85
2023/09/29 11:58:29;;;;;;;8.88;4.30;;;21.80;99.90;;;;;;4951852;29;20043;-84
2023/09/29 12:00:55;;;;;;;6.15;4.10;;;21.90;99.90;;;;;;4952556;29;20040;-85
2023/09/29 12:03:21;;;;;;;8.48;4.40;;;22.00;99.90;;;;;;4952403;29;20097;-85
2023/09/29 12:05:51;;;;;;;8.27;3.95;;;22.10;99.90;;;;;;4952245;29;20043;-84
2023/09/29 12:08:23;;;;;;;7.43;4.00;;;22.10;99.90;;;;;;4960643;28;20043;-85
2023/09/29 12:10:51;;;;;;;8.63;4.55;;;21.90;99.90;;;;;;4970294;28;20429;-86
2023/09/29 12:13:20;;;;;;;9.15;4.65;;;21.60;99.90;;;;;;4965879;28;20039;-86
2023/09/29 12:15:46;;;;;;;8.43;4.85;;;21.30;99.90;;;;;;4969465;28;20090;-86
2023/09/29 12:18:12;;;;;;;7.18;4.43;;;21.10;99.90;;;;;;4970710;28;20200;-85
2023/09/29 12:20:51;;;;;;;5.60;4.18;;;20.70;99.90;;;;;;4972701;28;20206;-85
2023/09/29 12:23:17;;;;;;;4.78;4.30;;;20.40;99.90;;;;;;4953179;28;20043;-85
2023/09/29 12:25:42;;;;;;;8.85;5.63;;;20.20;99.90;;;;;;4957882;28;20038;-85
2023/09/29 12:28:08;;;;;;;6.50;5.70;;;20.00;99.90;;;;;;4957917;28;20050;-86
2023/09/29 12:30:34;;;;;;;7.90;6.07;;;19.90;99.90;;;;;;4963653;28;20050;-85
2023/09/29 12:33:00;;;;;;;8.25;7.15;;;19.90;99.90;;;;;;4955182;28;20445;-85
2023/09/29 12:35:25;;;;;;;8.30;7.43;;;19.90;99.90;;;;;;4953273;28;20090;-85
2023/09/29 12:37:51;;;;;;;7.22;6.63;;;19.90;99.90;;;;;;4975129;28;20505;-86
2023/09/29 12:40:25;;;;;;;8.10;7.05;;;20.00;99.90;;;;;;4959543;28;20035;-86
2023/09/29 12:42:54;;;;;;;8.75;7.35;;;20.00;99.90;;;;;;4955508;29;20047;-85
2023/09/29 12:45:21;;;;;;;8.98;6.80;;;20.00;99.90;;;;;;4955401;29;20086;-86
2023/09/29 12:47:56;;;;;;;10.02;6.95;;;19.90;99.90;;;;;;4956052;28;20042;-86
2023/09/29 12:50:25;;;;;;;3.58;2.60;;;19.70;99.90;;;;;;4939458;29;20078;-85
2023/09/29 12:52:54;;;;;;;4.32;1.85;;;19.50;99.90;;;;;;4955310;29;20108;-86
2023/09/29 12:55:20;;;;;;;2.50;1.55;;;19.30;99.90;;;;;;4955368;29;20039;-84
2023/09/29 12:57:52;;;;;;;8.57;2.05;;;19.10;99.90;;;;;;4955242;29;20039;-83
2023/09/29 13:00:22;;;;;;;2.53;1.50;;;18.80;99.90;;;;;;4939477;29;20126;-84
2023/09/29 13:03:04;;;;;;;2.50;1.55;;;18.70;99.90;;;;;;4955273;29;20078;-84
2023/09/29 13:12:29;;;;;;;3.13;1.60;;;18.30;99.90;;;;;;4881271;29;20059;-85
2023/09/29 13:15:56;;;;;;;2.05;1.42;;;18.40;99.90;;;;;;4954260;29;20047;-86
2023/09/29 13:18:22;;;;;;;3.10;1.73;;;18.40;99.90;;;;;;4870249;28;20087;-85
2023/09/29 13:20:51;;;;;;;3.38;1.48;;;18.60;99.90;;;;;;4945139;28;20038;-84
2023/09/29 13:23:17;;;;;;;3.50;1.35;;;18.70;99.90;;;;;;4952314;28;20051;-84
2023/09/29 13:26:05;;;;;;;3.05;1.23;;;18.70;99.90;;;;;;4966493;28;20045;-85
2023/09/29 13:28:37;;;;;;;2.58;1.27;;;18.80;99.90;;;;;;4956803;28;20064;-85
2023/09/29 13:31:18;;;;;;;2.30;1.30;;;18.90;99.90;;;;;;4950697;28;20405;-84
2023/09/29 13:33:59;;;;;;;3.25;1.00;;;18.90;99.90;;;;;;4943474;28;20074;-85
2023/09/29 13:39:28;;;;;;;4.20;1.40;;;18.70;99.90;;;;;;4972251;28;20043;-86
2023/09/29 13:42:04;;;;;;;2.53;1.25;;;18.60;99.90;;;;;;4957999;28;20046;-85
2023/09/29 13:44:29;;;;;;;4.10;1.30;;;18.50;99.90;;;;;;4974076;28;20450;-86
2023/09/29 13:46:55;;;;;;;3.10;1.38;;;18.30;99.90;;;;;;4957772;28;20113;-85
2023/09/29 13:50:12;;;;;;;3.33;1.30;;;18.20;99.90;;;;;;4973763;28;20043;-86
2023/09/29 13:52:49;;;;;;;5.47;1.80;;;18.10;99.90;;;;;;4973598;28;20054;-86
2023/09/29 13:55:15;;;;;;;4.03;1.15;;;18.10;99.90;;;;;;4964522;28;20075;-86
2023/09/29 13:57:43;;;;;;;3.78;1.50;;;18.10;99.90;;;;;;4973706;28;20483;-85
2023/09/29 14:03:27;;;;;;;3.83;1.40;;;18.10;99.90;;;;;;4961309;28;20104;-85
2023/09/29 14:06:03;;;;;;;4.72;1.65;;;18.00;99.90;;;;;;4957334;28;20129;-84
2023/09/29 14:08:42;;;;;;;4.30;1.30;;;17.90;99.90;;;;;;4946444;28;20076;-84
2023/09/29 14:11:34;;;;;;;5.47;1.63;;;17.80;99.90;;;;;;4971905;28;20042;-85
2023/09/29 14:14:02;;;;;;;3.78;1.38;;;17.90;99.90;;;;;;4960520;28;20125;-84
2023/09/29 14:16:28;;;;;;;4.65;1.48;;;18.00;99.90;;;;;;4954092;28;20049;-83
2023/09/29 14:18:54;;;;;;;3.80;1.40;;;18.00;99.90;;;;;;4963356;28;20047;-83
2023/09/29 14:21:22;;;;;;;5.38;1.60;;;18.00;99.90;;;;;;4972042;28;20050;-83
2023/09/29 14:23:47;;;;;;;6.03;1.88;;;17.90;99.90;;;;;;4963496;28;20118;-83
2023/09/29 14:26:13;;;;;;;5.38;1.80;;;17.90;99.90;;;;;;4949001;28;20467;-82
2023/09/29 14:28:39;;;;;;;5.20;1.90;;;17.70;99.90;;;;;;4967157;28;20076;-83
2023/09/29 14:31:04;;;;;;;4.93;1.67;;;17.70;99.90;;;;;;4949793;29;20047;-83
2023/09/29 14:33:30;;;;;;;5.22;1.80;;;17.60;99.90;;;;;;4949745;28;20486;-84
2023/09/29 14:35:55;;;;;;;6.32;2.00;;;17.70;99.90;;;;;;4965487;28;20070;-83
2023/09/29 14:38:21;;;;;;;9.70;2.42;;;17.70;99.90;;;;;;4971657;28;20047;-85
2023/09/29 14:40:47;;;;;;;8.48;2.70;;;17.70;99.90;;;;;;4964434;28;20047;-82
2023/09/29 14:43:12;;;;;;;9.65;3.22;;;17.90;99.90;;;;;;4963653;28;20035;-82
2023/09/29 14:45:38;;;;;;;9.43;3.50;;;18.00;99.90;;;;;;4971893;28;20039;-83
2023/09/29 14:48:05;;;;;;;9.65;3.35;;;18.20;99.90;;;;;;4966179;28;20453;-84
2023/09/29 14:50:31;;;;;;;9.63;3.38;;;18.30;99.90;;;;;;4963668;28;20053;-81
2023/09/29 14:53:00;;;;;;;12.07;3.45;;;18.20;99.90;;;;;;4949846;29;20406;-82
2023/09/29 14:55:27;;;;;;;11.27;3.22;;;18.20;99.90;;;;;;4968349;28;20043;-84
2023/09/29 14:57:53;;;;;;;11.02;3.72;;;18.10;99.90;;;;;;4961552;28;20074;-84
2023/09/29 15:00:19;;;;;;;9.45;3.22;;;18.10;99.90;;;;;;4963163;28;20548;-84
2023/09/29 15:02:44;;;;;;;9.73;3.65;;;18.00;99.90;;;;;;4959799;28;20093;-84
2023/09/29 15:05:10;;;;;;;10.90;3.67;;;18.00;99.90;;;;;;4963900;28;20043;-85
2023/09/29 15:07:36;;;;;;;9.60;3.40;;;18.10;99.90;;;;;;4965651;28;20046;-82
2023/09/29 15:10:02;;;;;;;9.68;3.33;;;18.10;99.90;;;;;;4945160;28;20082;-82
2023/09/29 15:12:27;;;;;;;9.25;3.22;;;18.00;99.90;;;;;;4968720;28;20478;-83
2023/09/29 15:14:54;;;;;;;10.65;3.55;;;18.00;99.90;;;;;;4946165;29;20066;-84
2023/09/29 15:17:19;;;;;;;11.30;3.33;;;18.00;99.90;;;;;;4966514;28;20049;-84
2023/09/29 15:19:46;;;;;;;9.05;3.10;;;17.90;99.90;;;;;;4956600;28;20039;-84
2023/09/29 15:22:11;;;;;;;8.98;2.90;;;17.70;99.90;;;;;;4939996;28;20039;-83
2023/09/29 15:24:40;;;;;;;11.65;3.55;;;17.60;99.90;;;;;;4950908;28;20482;-85
2023/09/29 15:27:08;;;;;;;7.35;2.78;;;17.50;99.90;;;;;;4966753;28;20125;-83
2023/09/29 15:29:34;;;;;;;8.68;2.72;;;17.40;99.90;;;;;;4955742;28;20042;-82
2023/09/29 15:31:59;;;;;;;9.52;2.95;;;17.30;99.90;;;;;;4956061;28;20047;-82
2023/09/29 15:34:25;;;;;;;8.45;2.63;;;17.30;99.90;;;;;;4951888;28;20035;-82
2023/09/29 15:36:51;;;;;;;9.43;3.05;;;17.20;99.90;;;;;;4969799;28;20417;-82
2023/09/29 16:01:17;;;;;;;11.18;4.20;;;16.70;99.90;;;;;;5778097;23;20059;-80
2023/09/29 16:04:30;;;;;;;11.30;4.88;;;16.70;99.90;;;;;;4939920;28;20086;-78
2023/09/29 17:23:19;;;;;;;18.40;7.13;;;14.30;99.90;;;;;;4130191;23;20310;-80
2023/09/29 17:25:45;;;;;;;16.83;6.60;;;14.20;99.90;;;;;;4941814;28;20105;-84
2023/09/29 17:28:15;;;;;;;16.63;7.30;;;14.10;99.90;;;;;;4933194;28;20054;-84
2023/09/29 17:30:41;;;;;;;14.50;7.07;;;14.10;99.90;;;;;;4940569;28;20133;-84
2023/09/29 17:33:06;;;;;;;16.83;6.65;;;14.00;99.90;;;;;;4930581;29;20153;-85
2023/09/29 17:35:32;;;;;;;20.90;7.80;;;13.90;99.90;;;;;;4935466;28;20031;-84
2023/09/29 17:37:57;;;;;;;17.65;6.95;;;13.90;99.90;;;;;;4924321;29;20043;-84
2023/09/29 17:40:23;;;;;;;19.23;7.40;;;13.80;99.90;;;;;;4926336;29;20082;-85
2023/09/29 17:42:48;;;;;;;17.33;7.55;;;13.70;99.90;;;;;;4914934;29;20159;-85
2023/09/29 17:45:14;;;;;;;22.38;7.15;;;13.60;99.90;;;;;;4921355;29;20046;-84
2023/09/29 17:47:40;;;;;;;18.63;7.38;;;13.50;99.90;;;;;;4921622;29;20476;-85
2023/09/29 17:50:06;;;;;;;18.25;7.38;;;13.40;99.90;;;;;;4916251;29;20047;-85
2023/09/29 17:52:32;;;;;;;14.88;6.78;;;13.40;99.90;;;;;;4923263;29;20043;-85
2023/09/29 17:54:59;;;;;;;22.08;7.65;;;13.30;99.90;;;;;;4921134;29;20122;-84
2023/09/29 17:57:26;;;;;;;16.30;6.97;;;13.20;99.90;;;;;;4937428;29;20084;-84
2023/09/29 17:59:52;;;;;;;17.25;7.25;;;13.10;99.90;;;;;;4935337;29;20047;-84
2023/09/29 18:02:17;;;;;;;20.67;7.85;;;13.10;99.90;;;;;;4912532;29;20482;-85
2023/09/29 18:04:43;;;;;;;19.98;7.85;;;13.00;99.90;;;;;;4913574;29;20066;-85
2023/09/29 18:07:09;;;;;;;18.75;7.75;;;13.00;99.90;;;;;;4936268;29;20082;-85
2023/09/29 18:09:37;;;;;;;19.40;7.70;;;12.90;99.90;;;;;;4930635;29;20383;-85
2023/09/29 18:12:04;;;;;;;15.52;7.40;;;12.80;99.90;;;;;;4936150;29;20126;-85
2023/09/29 18:14:31;;;;;;;20.23;7.50;;;12.80;99.90;;;;;;4936066;29;20039;-85
2023/09/29 18:16:57;;;;;;;19.13;7.90;;;12.70;99.90;;;;;;4918250;28;20039;-85
2023/09/29 18:19:24;;;;;;;18.35;7.45;;;12.70;99.90;;;;;;4923965;29;20045;-85
2023/09/29 18:21:49;;;;;;;16.38;7.10;;;12.60;99.90;;;;;;4924537;29;20047;-85
2023/09/29 18:24:15;;;;;;;22.35;7.65;;;12.50;99.90;;;;;;4924140;29;20490;-85
2023/09/29 18:26:41;;;;;;;17.35;7.10;;;12.50;99.90;;;;;;4927372;29;20039;-86
2023/09/29 18:29:08;;;;;;;18.88;7.13;;;12.50;99.90;;;;;;4976839;28;20700;-84
2023/09/29 18:31:34;;;;;;;20.52;7.78;;;12.50;99.90;;;;;;4927671;29;20406;-84
2023/09/29 18:34:00;;;;;;;19.20;7.57;;;12.40;99.90;;;;;;4927186;29;20529;-84
2023/09/29 18:36:25;;;;;;;22.92;7.63;;;12.30;99.90;;;;;;4927845;29;20035;-84
2023/09/29 18:38:51;;;;;;;20.27;7.15;;;12.30;99.90;;;;;;4935145;29;20553;-83
2023/09/29 18:41:19;;;;;;;17.02;6.82;;;12.30;99.90;;;;;;4941892;29;20031;-84
2023/09/29 18:43:48;;;;;;;20.10;7.25;;;12.30;99.90;;;;;;4968366;28;20058;-84
2023/09/29 18:46:15;;;;;;;17.20;6.47;;;12.20;99.90;;;;;;4935286;29;20068;-85
2023/09/29 18:48:41;;;;;;;17.50;6.20;;;12.20;99.90;;;;;;4930822;28;20412;-84
2023/09/29 18:51:08;;;;;;;16.98;6.40;;;12.10;99.90;;;;;;4921627;29;20048;-84
2023/09/29 18:53:33;;;;;;;22.02;6.63;;;12.10;99.90;;;;;;4918746;29;20043;-85
2023/09/29 18:56:00;;;;;;;16.73;5.68;;;12.10;99.90;;;;;;4952272;29;20486;-84
2023/09/29 18:58:26;;;;;;;18.00;5.95;;;12.10;99.90;;;;;;4925322;29;20042;-84
2023/09/29 19:00:52;;;;;;;18.45;5.18;;;12.00;99.90;;;;;;4915032;29;20035;-84
2023/09/29 19:03:17;;;;;;;20.50;5.45;;;12.10;99.90;;;;;;4942544;28;20565;-84
2023/09/29 19:05:43;;;;;;;18.20;6.35;;;12.10;99.90;;;;;;4934099;29;20043;-84
2023/09/29 19:08:09;;;;;;;17.08;5.97;;;12.00;99.90;;;;;;4921825;29;20078;-84
2023/09/29 19:10:36;;;;;;;16.65;6.13;;;12.00;99.90;;;;;;4920105;29;20050;-84
2023/09/29 19:13:02;;;;;;;20.20;5.93;;;12.00;99.90;;;;;;4934696;29;20053;-84
2023/09/29 19:15:28;;;;;;;19.40;5.47;;;11.90;99.90;;;;;;4934322;29;20061;-84
2023/09/29 19:17:54;;;;;;;22.30;5.55;;;11.90;99.90;;;;;;4915613;29;20553;-84
2023/09/29 19:20:20;;;;;;;15.52;5.03;;;11.90;99.90;;;;;;4927812;29;20039;-84
2023/09/29 19:22:45;;;;;;;19.45;5.90;;;11.90;99.90;;;;;;4935093;29;20046;-84
2023/09/29 19:25:11;;;;;;;20.52;5.65;;;11.90;99.90;;;;;;4934635;29;20035;-84
2023/09/29 19:27:37;;;;;;;24.05;6.60;;;11.80;99.90;;;;;;4939975;29;20051;-85
2023/09/29 19:30:03;;;;;;;21.95;6.38;;;11.80;99.90;;;;;;4934909;29;20386;-85
2023/09/29 19:32:29;;;;;;;18.75;5.75;;;11.80;99.90;;;;;;4935407;29;20505;-84
2023/09/29 19:34:56;;;;;;;22.73;6.20;;;11.80;99.90;;;;;;4929494;29;20071;-84
2023/09/29 19:37:22;;;;;;;24.83;6.10;;;11.70;99.90;;;;;;4939205;29;20416;-85
2023/09/29 19:39:49;;;;;;;21.77;6.45;;;11.70;99.90;;;;;;4922710;29;20046;-84
2023/09/29 19:42:15;;;;;;;19.75;6.18;;;11.70;99.90;;;;;;4901223;29;20059;-84
2023/09/29 19:44:40;;;;;;;22.95;6.50;;;11.70;99.90;;;;;;4925063;29;20409;-85
2023/09/29 19:47:06;;;;;;;16.20;5.47;;;11.60;99.90;;;;;;4913920;28;20039;-84
2023/09/29 19:49:32;;;;;;;15.18;5.82;;;11.60;99.90;;;;;;4926722;28;20035;-84
2023/09/29 19:51:57;;;;;;;19.15;5.78;;;11.60;99.90;;;;;;4941186;29;20043;-84
2023/09/29 19:54:24;;;;;;;21.33;5.95;;;11.60;99.90;;;;;;4912604;29;20334;-84
2023/09/29 19:56:49;;;;;;;23.65;5.88;;;11.50;99.90;;;;;;4907246;29;20036;-84
2023/09/29 19:59:15;;;;;;;21.20;5.78;;;11.50;99.90;;;;;;4926176;29;20044;-84
2023/09/29 20:01:41;;;;;;;24.50;7.32;;;11.50;99.90;;;;;;4951215;29;20042;-84
2023/09/29 20:04:06;;;;;;;27.33;7.72;;;11.40;99.90;;;;;;4930179;29;20043;-84
2023/09/29 20:06:32;;;;;;;21.42;6.82;;;11.40;99.90;;;;;;4917164;29;20417;-82
2023/09/29 20:09:00;;;;;;;17.92;5.82;;;11.40;99.90;;;;;;4929270;29;20176;-85
2023/09/29 20:11:25;;;;;;;17.92;5.68;;;11.40;99.90;;;;;;4942259;29;20050;-85
2023/09/29 20:13:51;;;;;;;20.40;6.53;;;11.30;99.90;;;;;;4957724;28;20213;-85
2023/09/29 20:16:17;;;;;;;29.33;7.25;;;11.30;99.90;;;;;;4920466;29;20244;-85
2023/09/29 20:18:44;;;;;;;21.55;6.93;;;11.30;99.90;;;;;;4934320;29;20090;-85
2023/09/29 20:21:10;;;;;;;26.52;8.07;;;11.20;99.90;;;;;;4922541;29;20375;-85
2023/09/29 20:23:36;;;;;;;19.30;6.05;;;11.20;99.90;;;;;;4909863;29;20390;-86
2023/09/29 20:26:02;;;;;;;24.55;6.57;;;11.20;99.90;;;;;;4900569;29;20043;-85
2023/09/29 20:28:28;;;;;;;17.92;6.20;;;11.10;99.90;;;;;;4927690;29;20098;-85
2023/09/29 20:30:54;;;;;;;19.92;6.32;;;11.10;99.90;;;;;;4917387;29;20043;-85
2023/09/29 20:33:23;;;;;;;19.88;5.75;;;11.10;99.90;;;;;;4903029;29;20561;-85
2023/09/29 20:35:48;;;;;;;22.05;6.03;;;11.10;99.90;;;;;;4920614;29;20032;-85
2023/09/29 20:38:14;;;;;;;20.75;6.38;;;11.10;99.90;;;;;;4934389;29;20040;-85
2023/09/29 20:40:42;;;;;;;20.88;7.00;;;11.00;99.90;;;;;;4945583;28;20056;-85
2023/09/29 20:43:10;;;;;;;22.90;7.50;;;11.00;99.90;;;;;;4909096;29;20047;-86
2023/09/29 20:45:36;;;;;;;22.60;7.60;;;11.00;99.90;;;;;;4921550;29;20035;-85
2023/09/29 20:48:02;;;;;;;19.13;6.22;;;11.00;99.90;;;;;;4922580;29;20043;-86
2023/09/29 20:50:27;;;;;;;27.08;7.63;;;11.00;99.90;;;;;;4919743;29;20450;-84
2023/09/29 20:52:53;;;;;;;26.88;7.95;;;11.00;99.90;;;;;;4907829;29;20522;-86
2023/09/29 20:55:18;;;;;;;22.63;7.63;;;11.00;99.90;;;;;;4941885;29;20410;-85
2023/09/29 20:57:44;;;;;;;27.55;8.60;;;10.90;99.90;;;;;;4937326;29;20039;-86
2023/09/29 21:00:12;;;;;;;19.42;6.53;;;10.90;99.90;;;;;;4925602;29;20050;-86
2023/09/29 21:02:37;;;;;;;33.20;8.73;;;10.90;99.90;;;;;;4913847;29;20031;-85
2023/09/29 21:05:03;;;;;;;19.35;7.88;;;10.90;99.90;;;;;;4926050;29;20175;-85
2023/09/29 21:07:29;;;;;;;30.10;8.63;;;10.90;99.90;;;;;;4926270;29;20054;-86
2023/09/29 21:09:54;;;;;;;27.67;8.65;;;10.90;99.90;;;;;;4928995;29;20046;-83
2023/09/29 21:12:21;;;;;;;32.97;8.63;;;10.90;99.90;;;;;;4929394;29;20035;-84
2023/09/29 21:14:46;;;;;;;24.20;8.40;;;10.90;99.90;;;;;;4924686;29;20038;-84
2023/09/29 21:17:12;;;;;;;18.92;7.07;;;11.00;99.90;;;;;;4938936;29;20035;-84
2023/09/29 21:19:38;;;;;;;20.65;8.02;;;11.00;99.90;;;;;;4920671;29;20042;-83
2023/09/29 21:22:03;;;;;;;19.05;6.72;;;10.90;99.90;;;;;;4946335;28;20058;-84
2023/09/29 21:24:29;;;;;;;24.58;7.80;;;10.90;99.90;;;;;;4926863;28;20097;-84
2023/09/29 21:26:55;;;;;;;16.70;6.85;;;10.80;99.90;;;;;;4925519;29;20130;-84
2023/09/29 21:29:22;;;;;;;19.67;6.78;;;10.80;99.90;;;;;;4936965;29;20040;-84
2023/09/29 21:31:51;;;;;;;30.27;9.02;;;10.70;99.90;;;;;;4933059;29;20043;-84
2023/09/29 21:34:18;;;;;;;23.38;8.52;;;10.70;99.90;;;;;;4922747;29;20042;-84
2023/09/29 21:36:44;;;;;;;20.98;7.50;;;10.60;99.90;;;;;;4923746;29;20067;-84
2023/09/29 21:39:13;;;;;;;20.45;7.22;;;10.60;99.90;;;;;;4920720;29;20035;-84
2023/09/29 21:41:39;;;;;;;34.17;10.55;;;10.60;99.90;;;;;;4944214;29;20035;-86
2023/09/29 21:44:10;;;;;;;38.03;12.30;;;10.60;99.90;;;;;;4951919;29;20453;-86
2023/09/29 21:46:39;;;;;;;24.23;8.52;;;10.50;99.90;;;;;;4938437;28;20047;-86
2023/09/29 21:49:06;;;;;;;23.67;7.95;;;10.50;99.90;;;;;;4919749;29;20042;-86
2023/09/29 21:51:33;;;;;;;26.02;8.85;;;10.40;99.90;;;;;;4921263;29;20042;-86
2023/09/29 21:54:02;;;;;;;25.23;8.98;;;10.40;99.90;;;;;;4943816;28;20467;-86
2023/09/29 21:56:29;;;;;;;27.95;9.32;;;10.40;99.90;;;;;;4913567;29;20047;-86
2023/09/29 21:58:56;;;;;;;26.85;9.20;;;10.40;99.90;;;;;;4926461;29;20410;-85
2023/09/29 22:01:22;;;;;;;17.80;7.47;;;10.40;99.90;;;;;;4931148;29;20444;-86
2023/09/29 22:03:49;;;;;;;20.55;7.68;;;10.40;99.90;;;;;;4921663;29;20122;-86
2023/09/29 22:06:16;;;;;;;22.98;8.52;;;10.40;99.90;;;;;;4936808;29;20095;-86
2023/09/29 22:08:42;;;;;;;29.42;9.65;;;10.30;99.90;;;;;;4905331;29;20085;-86
2023/09/29 22:11:09;;;;;;;25.33;9.18;;;10.30;99.90;;;;;;4944901;29;20106;-83
2023/09/29 22:13:36;;;;;;;23.17;9.07;;;10.30;99.90;;;;;;4917757;29;20058;-84
2023/09/29 22:16:02;;;;;;;20.85;9.65;;;10.40;99.90;;;;;;4928596;29;20091;-84
2023/09/29 22:18:28;;;;;;;29.00;10.35;;;10.30;99.90;;;;;;4920254;29;20053;-84
2023/09/29 22:20:55;;;;;;;30.63;11.63;;;10.30;99.90;;;;;;4915123;29;20043;-84
2023/09/29 22:23:21;;;;;;;27.45;11.05;;;10.30;99.90;;;;;;4935704;29;20075;-84
2023/09/29 22:25:47;;;;;;;39.40;13.43;;;10.30;99.90;;;;;;4927493;29;20501;-84
2023/09/29 22:28:12;;;;;;;26.20;10.45;;;10.30;99.90;;;;;;4912022;29;20049;-83
2023/09/29 22:30:38;;;;;;;27.90;9.77;;;10.30;99.90;;;;;;4912976;29;20035;-84
2023/09/29 22:33:03;;;;;;;26.35;11.15;;;10.30;99.90;;;;;;4919112;29;20389;-85
2023/09/29 22:35:29;;;;;;;21.65;9.27;;;10.30;99.90;;;;;;4924127;29;20035;-85
2023/09/29 22:37:55;;;;;;;29.83;11.00;;;10.30;99.90;;;;;;4953518;29;20043;-85
2023/09/29 22:40:21;;;;;;;30.33;12.48;;;10.30;99.90;;;;;;4951981;29;20493;-85
2023/09/29 22:42:47;;;;;;;29.45;11.20;;;10.30;99.90;;;;;;4914433;29;20043;-85
2023/09/29 22:45:14;;;;;;;32.25;12.02;;;10.30;99.90;;;;;;4917902;29;20046;-85
2023/09/29 22:47:39;;;;;;;33.35;12.77;;;10.30;99.90;;;;;;4902649;29;20130;-85
2023/09/29 22:50:07;;;;;;;30.73;12.80;;;10.20;99.90;;;;;;4918351;29;20131;-85
2023/09/29 22:52:36;;;;;;;26.05;11.55;;;10.30;99.90;;;;;;4910146;29;20046;-86
2023/09/29 22:55:03;;;;;;;22.73;11.20;;;10.30;99.90;;;;;;4936876;29;20043;-85
2023/09/29 22:57:29;;;;;;;31.75;11.13;;;10.30;99.90;;;;;;4944918;29;20474;-85
2023/09/29 22:59:57;;;;;;;33.92;11.43;;;10.20;99.90;;;;;;4928196;29;20035;-85
2023/09/29 23:02:23;;;;;;;21.55;9.38;;;10.20;99.90;;;;;;4922658;29;20047;-85
2023/09/29 23:04:49;;;;;;;28.02;10.63;;;10.20;99.90;;;;;;4926166;29;20047;-85
2023/09/29 23:07:14;;;;;;;31.13;12.57;;;10.20;99.90;;;;;;4944701;29;20414;-85
2023/09/29 23:09:40;;;;;;;29.23;12.40;;;10.20;99.90;;;;;;4937076;29;20050;-85
2023/09/29 23:12:08;;;;;;;38.92;14.48;;;10.20;99.90;;;;;;4928854;28;20040;-85
2023/09/29 23:14:34;;;;;;;34.47;13.48;;;10.10;99.90;;;;;;4952747;28;20126;-86
2023/09/29 23:17:01;;;;;;;30.48;12.18;;;10.10;99.90;;;;;;4920991;29;20036;-86
2023/09/29 23:19:27;;;;;;;36.28;13.23;;;10.20;99.90;;;;;;4921113;29;20043;-85
2023/09/29 23:21:53;;;;;;;32.42;13.38;;;10.20;99.90;;;;;;4937149;29;20043;-86
2023/09/29 23:24:19;;;;;;;30.05;12.63;;;10.20;99.90;;;;;;4927857;29;20102;-86
2023/09/29 23:26:45;;;;;;;30.70;11.73;;;10.20;99.90;;;;;;4905835;29;20043;-85
2023/09/29 23:29:12;;;;;;;41.03;14.95;;;10.30;99.90;;;;;;4924701;29;20075;-85
2023/09/29 23:31:37;;;;;;;43.58;15.30;;;10.30;99.90;;;;;;4926045;29;20056;-85